Time;durP1;ratioP1;P1;durP2;ratioP2;P2;SDS_P1;SDS_P2;PMS_P1;PMS_P2;Temp;Humidity;BMP_temperature;BMP_pressure;BME280_temperature;BME280_humidity;BME280_pressure;Samples;Min_cycle;Max_cycle;Signal;HPM_P1;HPM_P2
2021/08/23 00:00:22;;;;;;;4.30;3.00;;;;;;;;;;5015270;28;20387;-69
2021/08/23 00:02:51;;;;;;;4.88;3.30;;;;;;;;;;5014210;28;20040;-69
2021/08/23 00:05:17;;;;;;;7.43;3.40;;;;;;;;;;5015503;28;20074;-68
2021/08/23 00:07:43;;;;;;;5.70;3.40;;;;;;;;;;5013624;28;20113;-69
2021/08/23 00:10:09;;;;;;;4.55;3.20;;;;;;;;;;4995731;28;20077;-70
2021/08/23 00:12:36;;;;;;;6.53;3.60;;;;;;;;;;5015269;28;20490;-66
2021/08/23 00:15:02;;;;;;;4.82;3.70;;;;;;;;;;5013965;28;20032;-74
2021/08/23 00:17:28;;;;;;;6.47;3.55;;;;;;;;;;5012368;28;20030;-70
2021/08/23 00:19:54;;;;;;;4.97;3.35;;;;;;;;;;5015038;28;20068;-74
2021/08/23 00:22:29;;;;;;;7.68;3.58;;;;;;;;;;5013395;28;20095;-76
2021/08/23 00:24:55;;;;;;;7.70;3.78;;;;;;;;;;5015356;28;20105;-75
2021/08/23 00:27:21;;;;;;;4.47;3.50;;;;;;;;;;5013172;28;20025;-75
2021/08/23 00:29:47;;;;;;;6.05;3.70;;;;;;;;;;5013232;28;20026;-70
2021/08/23 00:32:14;;;;;;;4.97;4.00;;;;;;;;;;5014505;28;20486;-73
2021/08/23 00:34:41;;;;;;;6.32;3.70;;;;;;;;;;5013645;28;20034;-75
2021/08/23 00:37:07;;;;;;;5.75;4.05;;;;;;;;;;5013337;28;20026;-71
2021/08/23 00:39:34;;;;;;;7.80;4.05;;;;;;;;;;5013809;28;20471;-73
2021/08/23 00:42:01;;;;;;;5.97;3.78;;;;;;;;;;5008257;28;20449;-75
2021/08/23 00:44:27;;;;;;;7.55;4.22;;;;;;;;;;5014878;28;20109;-72
2021/08/23 00:46:53;;;;;;;6.78;4.03;;;;;;;;;;5013010;28;20026;-75
2021/08/23 00:49:19;;;;;;;6.10;4.20;;;;;;;;;;5014564;28;20025;-73
2021/08/23 00:51:46;;;;;;;7.43;4.07;;;;;;;;;;5013326;28;20431;-71
2021/08/23 00:54:12;;;;;;;6.35;4.07;;;;;;;;;;5014708;28;20025;-76
2021/08/23 00:56:38;;;;;;;5.80;4.00;;;;;;;;;;5006212;28;20026;-73
2021/08/23 00:59:08;;;;;;;7.30;4.10;;;;;;;;;;5011260;28;20471;-71
2021/08/23 01:01:38;;;;;;;6.60;4.15;;;;;;;;;;5012445;28;20037;-68
2021/08/23 01:04:10;;;;;;;8.68;3.92;;;;;;;;;;5014518;28;20074;-74
2021/08/23 01:06:36;;;;;;;5.20;4.00;;;;;;;;;;5012590;28;20032;-66
2021/08/23 01:09:07;;;;;;;6.43;4.00;;;;;;;;;;5014723;28;20104;-73
2021/08/23 01:11:35;;;;;;;8.35;3.85;;;;;;;;;;5013562;28;20018;-71
2021/08/23 01:14:02;;;;;;;5.22;3.88;;;;;;;;;;5010205;28;20550;-71
2021/08/23 01:16:31;;;;;;;6.15;3.95;;;;;;;;;;5002938;28;20476;-70
2021/08/23 01:18:57;;;;;;;5.35;3.70;;;;;;;;;;5013645;28;20149;-65
2021/08/23 01:21:26;;;;;;;5.63;3.75;;;;;;;;;;5014492;28;20026;-73
2021/08/23 01:23:52;;;;;;;8.27;4.22;;;;;;;;;;5012862;28;20092;-73
2021/08/23 01:26:22;;;;;;;6.00;3.90;;;;;;;;;;5012559;28;20034;-69
2021/08/23 01:28:51;;;;;;;10.70;4.00;;;;;;;;;;5012560;28;20052;-74
2021/08/23 01:31:35;;;;;;;5.97;3.60;;;;;;;;;;5010595;28;20549;-63
2021/08/23 01:34:02;;;;;;;6.32;4.07;;;;;;;;;;5013774;28;20037;-74
2021/08/23 01:36:28;;;;;;;7.07;4.40;;;;;;;;;;5012058;28;20080;-72
2021/08/23 01:38:54;;;;;;;8.65;4.68;;;;;;;;;;5013766;28;20026;-73
2021/08/23 01:41:22;;;;;;;7.05;4.30;;;;;;;;;;5013577;28;20053;-71
2021/08/23 01:43:48;;;;;;;6.32;3.97;;;;;;;;;;5011907;28;20030;-71
2021/08/23 01:46:14;;;;;;;6.80;4.10;;;;;;;;;;5010218;28;20028;-69
2021/08/23 01:48:40;;;;;;;8.32;3.90;;;;;;;;;;5010617;28;20077;-71
2021/08/23 01:51:06;;;;;;;6.35;3.80;;;;;;;;;;5013651;28;20080;-74
2021/08/23 01:53:33;;;;;;;5.45;4.00;;;;;;;;;;5002930;28;20033;-67
2021/08/23 01:56:00;;;;;;;7.47;3.80;;;;;;;;;;5007066;28;20026;-71
2021/08/23 01:58:26;;;;;;;6.32;3.63;;;;;;;;;;5003608;28;20028;-69
2021/08/23 02:00:52;;;;;;;5.72;3.53;;;;;;;;;;5006047;28;20030;-73
2021/08/23 02:03:18;;;;;;;7.90;3.70;;;;;;;;;;5009119;28;20037;-69
2021/08/23 02:05:45;;;;;;;6.78;3.60;;;;;;;;;;5013492;28;20058;-72
2021/08/23 02:08:11;;;;;;;7.18;3.60;;;;;;;;;;5011426;28;20033;-74
2021/08/23 02:10:37;;;;;;;6.38;3.35;;;;;;;;;;5013116;28;20022;-69
2021/08/23 02:13:04;;;;;;;8.43;3.78;;;;;;;;;;5009103;28;20037;-71
2021/08/23 02:15:30;;;;;;;7.20;3.70;;;;;;;;;;5010435;28;20022;-74
2021/08/23 02:17:56;;;;;;;5.93;3.80;;;;;;;;;;4999526;28;20073;-71
2021/08/23 02:20:22;;;;;;;4.68;3.55;;;;;;;;;;5010083;28;20033;-67
2021/08/23 02:22:48;;;;;;;5.55;3.50;;;;;;;;;;5013167;28;20095;-66
2021/08/23 02:25:20;;;;;;;5.30;4.05;;;;;;;;;;5012816;28;20025;-72
2021/08/23 02:27:46;;;;;;;6.22;3.67;;;;;;;;;;5011623;28;20109;-75
2021/08/23 02:30:13;;;;;;;5.40;3.85;;;;;;;;;;5010459;28;20092;-69
2021/08/23 02:32:39;;;;;;;5.18;3.65;;;;;;;;;;4989932;28;20382;-71
2021/08/23 02:35:05;;;;;;;6.25;3.65;;;;;;;;;;5005607;28;20054;-71
2021/08/23 02:37:31;;;;;;;6.65;3.65;;;;;;;;;;5010842;28;20545;-71
2021/08/23 02:39:57;;;;;;;5.22;3.53;;;;;;;;;;5012971;28;20018;-73
2021/08/23 02:42:23;;;;;;;5.88;3.58;;;;;;;;;;5012075;28;20050;-72
2021/08/23 02:44:49;;;;;;;4.20;3.25;;;;;;;;;;5011374;28;20026;-68
2021/08/23 02:47:18;;;;;;;5.15;3.20;;;;;;;;;;5010036;28;20034;-70
2021/08/23 02:49:44;;;;;;;5.60;3.38;;;;;;;;;;5012763;28;20507;-69
2021/08/23 02:52:12;;;;;;;6.55;3.58;;;;;;;;;;5012692;28;20092;-70
2021/08/23 02:54:38;;;;;;;7.10;3.47;;;;;;;;;;5012681;28;20022;-71
2021/08/23 02:57:05;;;;;;;8.98;4.35;;;;;;;;;;5000700;28;20041;-69
2021/08/23 02:59:31;;;;;;;6.22;3.40;;;;;;;;;;5001401;28;20025;-65
2021/08/23 03:01:57;;;;;;;5.05;3.50;;;;;;;;;;5012029;28;20022;-69
2021/08/23 03:04:23;;;;;;;8.25;3.75;;;;;;;;;;5009503;28;20042;-64
2021/08/23 03:06:49;;;;;;;5.43;3.42;;;;;;;;;;5010742;28;20014;-64
2021/08/23 03:09:15;;;;;;;5.88;3.70;;;;;;;;;;5012194;28;20487;-67
2021/08/23 03:11:41;;;;;;;5.80;3.35;;;;;;;;;;5012435;28;20064;-64
2021/08/23 03:14:07;;;;;;;4.90;3.10;;;;;;;;;;5005202;28;20026;-73
2021/08/23 03:16:33;;;;;;;6.20;3.15;;;;;;;;;;5004963;28;20053;-71
2021/08/23 03:18:59;;;;;;;7.03;3.25;;;;;;;;;;5012344;28;20493;-64
2021/08/23 03:21:26;;;;;;;5.07;3.17;;;;;;;;;;5011495;28;20575;-69
2021/08/23 03:23:52;;;;;;;5.10;3.08;;;;;;;;;;5011195;28;20487;-65
2021/08/23 03:26:19;;;;;;;6.35;3.10;;;;;;;;;;5010504;28;20148;-71
2021/08/23 03:28:45;;;;;;;6.70;3.22;;;;;;;;;;5011733;28;20079;-67
2021/08/23 03:31:11;;;;;;;4.38;2.90;;;;;;;;;;5000850;28;20030;-72
2021/08/23 03:33:39;;;;;;;5.25;3.40;;;;;;;;;;5012060;28;20038;-71
2021/08/23 03:36:05;;;;;;;6.68;3.15;;;;;;;;;;5010309;28;20436;-72
2021/08/23 03:38:32;;;;;;;6.35;3.17;;;;;;;;;;5010387;28;20036;-72
2021/08/23 03:40:58;;;;;;;3.85;2.80;;;;;;;;;;5011327;28;20030;-71
2021/08/23 03:43:24;;;;;;;7.18;3.00;;;;;;;;;;5012072;28;20033;-71
2021/08/23 03:45:50;;;;;;;8.23;3.50;;;;;;;;;;5005679;28;20041;-69
2021/08/23 03:48:16;;;;;;;4.65;2.97;;;;;;;;;;5011586;28;20037;-74
2021/08/23 03:50:42;;;;;;;4.88;2.97;;;;;;;;;;5011964;28;20524;-72
2021/08/23 03:53:08;;;;;;;5.47;3.20;;;;;;;;;;5011729;28;20519;-64
2021/08/23 03:55:34;;;;;;;5.10;3.45;;;;;;;;;;5010042;28;20369;-68
2021/08/23 03:58:01;;;;;;;4.65;3.10;;;;;;;;;;4997602;28;20022;-64
2021/08/23 04:00:27;;;;;;;8.52;3.05;;;;;;;;;;5006642;28;20042;-64
2021/08/23 04:02:53;;;;;;;4.20;3.10;;;;;;;;;;5003218;28;20045;-71
2021/08/23 04:05:19;;;;;;;5.57;3.13;;;;;;;;;;5010661;28;20037;-64
2021/08/23 04:07:45;;;;;;;6.28;2.90;;;;;;;;;;5008113;28;20038;-64
2021/08/23 04:10:11;;;;;;;4.90;3.30;;;;;;;;;;5011654;28;20086;-70
2021/08/23 04:12:37;;;;;;;4.63;3.28;;;;;;;;;;5001716;28;20145;-70
2021/08/23 04:15:04;;;;;;;7.85;3.22;;;;;;;;;;5007285;28;20398;-65
2021/08/23 04:17:30;;;;;;;5.65;3.38;;;;;;;;;;5000469;28;20026;-65
2021/08/23 04:19:56;;;;;;;4.38;3.20;;;;;;;;;;5018339;28;20035;-63
2021/08/23 04:22:22;;;;;;;4.03;3.17;;;;;;;;;;5009927;28;20360;-60
2021/08/23 04:24:48;;;;;;;4.38;3.22;;;;;;;;;;5006976;28;20391;-69
2021/08/23 04:27:14;;;;;;;5.85;3.30;;;;;;;;;;5010459;28;20136;-60
2021/08/23 04:29:40;;;;;;;7.07;3.20;;;;;;;;;;5010717;28;20034;-75
2021/08/23 04:32:06;;;;;;;8.55;3.40;;;;;;;;;;5013100;28;20025;-66
2021/08/23 04:34:32;;;;;;;4.45;3.33;;;;;;;;;;5021099;28;20057;-63
2021/08/23 04:37:03;;;;;;;4.28;3.10;;;;;;;;;;5013394;28;20034;-64
2021/08/23 04:39:30;;;;;;;5.03;3.20;;;;;;;;;;5009951;28;20118;-77
2021/08/23 04:41:56;;;;;;;8.48;3.28;;;;;;;;;;5014774;28;20049;-74
2021/08/23 04:44:22;;;;;;;8.18;3.58;;;;;;;;;;5012306;28;20488;-68
2021/08/23 04:46:49;;;;;;;7.20;3.90;;;;;;;;;;5009366;28;20022;-63
2021/08/23 04:49:16;;;;;;;8.23;4.15;;;;;;;;;;5010100;28;20472;-63
2021/08/23 04:51:42;;;;;;;7.78;4.20;;;;;;;;;;5013962;28;20102;-66
2021/08/23 04:54:08;;;;;;;6.82;4.25;;;;;;;;;;5014558;28;20024;-63
2021/08/23 04:56:34;;;;;;;5.97;3.95;;;;;;;;;;5008062;28;20396;-63
2021/08/23 04:59:00;;;;;;;8.13;3.80;;;;;;;;;;5011458;28;20028;-62
2021/08/23 05:01:26;;;;;;;13.57;3.88;;;;;;;;;;5013868;28;20487;-62
2021/08/23 05:03:52;;;;;;;6.90;3.60;;;;;;;;;;4996203;28;20459;-63
2021/08/23 05:06:18;;;;;;;16.73;4.25;;;;;;;;;;5013935;28;20061;-62
2021/08/23 05:08:47;;;;;;;22.85;5.00;;;;;;;;;;5003713;28;20030;-68
2021/08/23 05:11:13;;;;;;;11.15;3.72;;;;;;;;;;5014411;28;20018;-63
2021/08/23 05:13:39;;;;;;;6.20;3.67;;;;;;;;;;5014118;28;20049;-64
2021/08/23 05:16:05;;;;;;;7.85;3.50;;;;;;;;;;4987073;28;20500;-63
2021/08/23 05:18:31;;;;;;;16.67;3.97;;;;;;;;;;5009012;28;20033;-62
2021/08/23 05:21:03;;;;;;;5.07;3.22;;;;;;;;;;5014467;28;20026;-64
2021/08/23 05:23:30;;;;;;;10.30;3.70;;;;;;;;;;5013447;28;20034;-65
2021/08/23 05:25:56;;;;;;;6.03;3.58;;;;;;;;;;5014237;28;20099;-62
2021/08/23 05:28:22;;;;;;;8.02;3.72;;;;;;;;;;5012623;28;20064;-67
2021/08/23 05:30:49;;;;;;;8.02;3.78;;;;;;;;;;5012750;28;20034;-65
2021/08/23 05:33:15;;;;;;;11.38;3.92;;;;;;;;;;5013864;28;20049;-74
2021/08/23 05:35:41;;;;;;;12.80;4.15;;;;;;;;;;5013673;28;20029;-63
2021/08/23 05:38:07;;;;;;;10.90;3.90;;;;;;;;;;5014359;28;20030;-63
2021/08/23 05:40:34;;;;;;;7.80;4.20;;;;;;;;;;5013152;28;20044;-63
2021/08/23 05:43:02;;;;;;;11.52;4.38;;;;;;;;;;5012440;28;20049;-62
2021/08/23 05:45:28;;;;;;;10.60;4.35;;;;;;;;;;4992598;28;20063;-68
2021/08/23 05:47:54;;;;;;;9.27;4.15;;;;;;;;;;5011965;28;20030;-69
2021/08/23 05:50:20;;;;;;;10.65;4.00;;;;;;;;;;5011369;28;20053;-64
2021/08/23 05:52:47;;;;;;;23.02;5.13;;;;;;;;;;5012319;28;20028;-63
2021/08/23 05:55:13;;;;;;;11.63;4.30;;;;;;;;;;5002779;28;20035;-65
2021/08/23 05:57:39;;;;;;;9.05;4.28;;;;;;;;;;5011270;28;20038;-62
2021/08/23 06:00:07;;;;;;;8.07;4.20;;;;;;;;;;5011652;28;20025;-72
2021/08/23 06:02:36;;;;;;;15.77;4.50;;;;;;;;;;5007122;28;20026;-63
2021/08/23 06:05:02;;;;;;;8.45;4.25;;;;;;;;;;5011211;28;20030;-74
2021/08/23 06:07:28;;;;;;;11.88;4.60;;;;;;;;;;4995705;28;20033;-74
2021/08/23 06:09:56;;;;;;;5.55;3.92;;;;;;;;;;5012409;28;20046;-70
2021/08/23 06:12:22;;;;;;;20.17;5.35;;;;;;;;;;5010370;28;20060;-79
2021/08/23 06:14:48;;;;;;;8.05;4.32;;;;;;;;;;5011864;28;20052;-76
2021/08/23 06:17:14;;;;;;;7.38;3.92;;;;;;;;;;5012639;28;20022;-78
2021/08/23 06:19:40;;;;;;;6.07;4.22;;;;;;;;;;5012081;28;20030;-78
2021/08/23 06:22:06;;;;;;;10.45;4.20;;;;;;;;;;5009213;28;20065;-79
2021/08/23 06:24:34;;;;;;;16.08;6.00;;;;;;;;;;4998213;28;20034;-78
2021/08/23 06:27:00;;;;;;;11.45;4.53;;;;;;;;;;5011475;28;20150;-78
2021/08/23 06:29:26;;;;;;;11.48;4.57;;;;;;;;;;5002401;28;20116;-74
2021/08/23 06:31:52;;;;;;;9.95;4.82;;;;;;;;;;5011374;28;20464;-63
2021/08/23 06:34:18;;;;;;;8.57;4.32;;;;;;;;;;5001184;28;20096;-64
2021/08/23 06:36:45;;;;;;;18.77;4.43;;;;;;;;;;5011187;28;20024;-59
2021/08/23 06:39:12;;;;;;;29.95;5.07;;;;;;;;;;5010964;28;20056;-65
2021/08/23 06:41:38;;;;;;;6.32;4.05;;;;;;;;;;5005550;28;20038;-64
2021/08/23 06:44:04;;;;;;;6.40;3.95;;;;;;;;;;4984936;28;20038;-91
2021/08/23 06:46:30;;;;;;;8.43;3.80;;;;;;;;;;4993512;28;20500;-72
2021/08/23 06:48:56;;;;;;;10.68;4.00;;;;;;;;;;4995918;28;20026;-80
2021/08/23 06:51:24;;;;;;;13.52;4.55;;;;;;;;;;4990936;28;20030;-73
2021/08/23 06:53:50;;;;;;;6.78;3.80;;;;;;;;;;4991287;28;20029;-77
2021/08/23 06:56:17;;;;;;;7.45;4.38;;;;;;;;;;4980680;28;20033;-72
2021/08/23 06:58:43;;;;;;;5.57;3.80;;;;;;;;;;4992635;28;20063;-76
2021/08/23 07:01:09;;;;;;;10.20;4.40;;;;;;;;;;4991603;28;20037;-72
2021/08/23 07:03:38;;;;;;;8.77;3.75;;;;;;;;;;4987248;28;20041;-74
2021/08/23 07:06:04;;;;;;;9.02;3.88;;;;;;;;;;4982949;28;20105;-80
2021/08/23 07:08:30;;;;;;;11.48;3.85;;;;;;;;;;4985696;28;20027;-73
2021/08/23 07:10:58;;;;;;;7.65;4.10;;;;;;;;;;4990564;28;20392;-74
2021/08/23 07:13:24;;;;;;;6.70;3.80;;;;;;;;;;4972968;28;20050;-77
2021/08/23 07:15:50;;;;;;;9.25;3.92;;;;;;;;;;4990911;28;20050;-79
2021/08/23 07:18:16;;;;;;;6.78;3.90;;;;;;;;;;4985794;28;20039;-75
2021/08/23 07:20:42;;;;;;;7.88;4.00;;;;;;;;;;4986378;28;20014;-74
2021/08/23 07:23:09;;;;;;;6.05;3.60;;;;;;;;;;4990387;28;20045;-76
2021/08/23 07:25:35;;;;;;;9.55;4.10;;;;;;;;;;4991115;28;20049;-61
2021/08/23 07:28:01;;;;;;;11.98;3.90;;;;;;;;;;5008513;28;20060;-68
2021/08/23 07:30:28;;;;;;;5.80;3.70;;;;;;;;;;4996668;28;20019;-65
2021/08/23 07:32:54;;;;;;;10.15;3.60;;;;;;;;;;4992009;28;20030;-62
2021/08/23 07:35:20;;;;;;;7.10;4.00;;;;;;;;;;4991745;28;20054;-69
2021/08/23 07:37:47;;;;;;;20.23;4.55;;;;;;;;;;4991489;28;20037;-71
2021/08/23 07:40:14;;;;;;;7.82;4.05;;;;;;;;;;4997014;28;20030;-68
2021/08/23 07:42:41;;;;;;;11.85;4.25;;;;;;;;;;5020515;28;20087;-60
2021/08/23 07:45:07;;;;;;;7.18;3.90;;;;;;;;;;5038998;28;20021;-68
2021/08/23 07:47:34;;;;;;;10.63;4.07;;;;;;;;;;5030464;28;20033;-68
2021/08/23 07:50:03;;;;;;;8.23;3.95;;;;;;;;;;5032117;28;20485;-69
2021/08/23 07:52:29;;;;;;;5.03;3.42;;;;;;;;;;5030964;28;20036;-61
2021/08/23 07:54:55;;;;;;;6.88;3.60;;;;;;;;;;5031298;28;20026;-68
2021/08/23 07:57:21;;;;;;;8.63;4.03;;;;;;;;;;5040649;28;20083;-67
2021/08/23 07:59:48;;;;;;;7.50;3.67;;;;;;;;;;5029718;28;20100;-75
2021/08/23 08:02:14;;;;;;;9.13;3.58;;;;;;;;;;5030967;28;20045;-74
2021/08/23 08:04:40;;;;;;;5.65;3.42;;;;;;;;;;5030022;28;20041;-82
2021/08/23 08:07:06;;;;;;;9.50;3.80;;;;;;;;;;5013483;28;20025;-63
2021/08/23 08:09:32;;;;;;;17.30;5.28;;;;;;;;;;5034002;28;20018;-68
2021/08/23 08:11:58;;;;;;;16.02;5.10;;;;;;;;;;5034972;28;20108;-64
2021/08/23 08:14:24;;;;;;;9.35;4.57;;;;;;;;;;5034660;28;20444;-70
2021/08/23 08:16:50;;;;;;;8.80;3.90;;;;;;;;;;5034769;28;20497;-67
2021/08/23 08:19:16;;;;;;;7.60;3.83;;;;;;;;;;5034210;28;20096;-64
2021/08/23 08:21:44;;;;;;;7.90;4.07;;;;;;;;;;5034498;28;20022;-64
2021/08/23 08:24:10;;;;;;;11.48;4.15;;;;;;;;;;5033382;28;20475;-63
2021/08/23 08:26:38;;;;;;;7.90;3.75;;;;;;;;;;5029901;28;20482;-65
2021/08/23 08:29:04;;;;;;;6.82;3.72;;;;;;;;;;5032995;28;20162;-77
2021/08/23 08:31:30;;;;;;;9.38;5.10;;;;;;;;;;5028932;28;20014;-79
2021/08/23 08:33:56;;;;;;;12.25;4.47;;;;;;;;;;5031327;28;20036;-81
2021/08/23 08:36:22;;;;;;;7.70;3.70;;;;;;;;;;5034778;28;20534;-79
2021/08/23 08:38:48;;;;;;;10.05;4.20;;;;;;;;;;5034111;28;20554;-77
2021/08/23 08:41:14;;;;;;;9.40;4.40;;;;;;;;;;5033026;28;20025;-72
2021/08/23 08:43:40;;;;;;;12.88;5.03;;;;;;;;;;5034721;28;20037;-71
2021/08/23 08:46:07;;;;;;;13.90;5.18;;;;;;;;;;5034107;28;20033;-76
2021/08/23 08:48:34;;;;;;;13.07;4.70;;;;;;;;;;5033034;28;20057;-79
2021/08/23 08:51:00;;;;;;;10.80;4.38;;;;;;;;;;5027709;28;20080;-75
2021/08/23 08:53:26;;;;;;;11.95;4.40;;;;;;;;;;5028377;28;20056;-69
2021/08/23 08:55:52;;;;;;;12.82;4.60;;;;;;;;;;5035110;28;20021;-75
2021/08/23 08:58:22;;;;;;;13.52;5.43;;;;;;;;;;5032916;28;20472;-71
2021/08/23 09:00:48;;;;;;;15.10;4.78;;;;;;;;;;5028044;28;20029;-70
2021/08/23 09:03:24;;;;;;;11.50;4.70;;;;;;;;;;5032372;28;20045;-70
2021/08/23 09:05:59;;;;;;;11.18;4.50;;;;;;;;;;5033965;28;20041;-70
2021/08/23 09:08:28;;;;;;;13.02;4.97;;;;;;;;;;5020502;28;20091;-71
2021/08/23 09:10:55;;;;;;;6.15;4.05;;;;;;;;;;5027729;28;20026;-71
2021/08/23 09:13:21;;;;;;;21.13;5.40;;;;;;;;;;5031562;28;20108;-74
2021/08/23 09:15:57;;;;;;;11.05;4.28;;;;;;;;;;5033273;28;20022;-72
2021/08/23 09:18:30;;;;;;;10.30;4.65;;;;;;;;;;5010930;28;20034;-75
2021/08/23 09:20:59;;;;;;;9.48;4.53;;;;;;;;;;5033353;28;20021;-80
2021/08/23 09:23:34;;;;;;;10.18;4.93;;;;;;;;;;5030591;28;20041;-71
2021/08/23 09:26:07;;;;;;;11.82;5.07;;;;;;;;;;5030088;28;20018;-79
2021/08/23 09:28:33;;;;;;;10.57;4.57;;;;;;;;;;5031975;28;20068;-70
2021/08/23 09:30:59;;;;;;;14.68;4.97;;;;;;;;;;5030523;28;20408;-70
2021/08/23 09:33:25;;;;;;;14.30;5.15;;;;;;;;;;5009225;28;20039;-72
2021/08/23 09:35:52;;;;;;;16.33;5.07;;;;;;;;;;5032109;28;20056;-71
2021/08/23 09:38:18;;;;;;;10.57;5.25;;;;;;;;;;5030149;28;20293;-75
2021/08/23 09:40:45;;;;;;;12.05;4.85;;;;;;;;;;5019953;28;20025;-84
2021/08/23 09:43:13;;;;;;;11.52;5.03;;;;;;;;;;5033103;28;20046;-85
2021/08/23 09:46:11;;;;;;;10.75;5.28;;;;;;;;;;5029030;28;20025;-71
2021/08/23 09:48:38;;;;;;;15.60;5.03;;;;;;;;;;5020904;28;20538;-70
2021/08/23 09:51:04;;;;;;;14.40;5.45;;;;;;;;;;5032475;28;20083;-71
2021/08/23 09:53:32;;;;;;;11.10;4.63;;;;;;;;;;5032262;28;20129;-67
2021/08/23 09:55:59;;;;;;;13.80;4.90;;;;;;;;;;5032548;28;20109;-70
2021/08/23 09:58:26;;;;;;;10.00;4.53;;;;;;;;;;5010190;28;20072;-70
2021/08/23 10:00:53;;;;;;;12.05;4.63;;;;;;;;;;5031092;28;20048;-65
2021/08/23 10:03:21;;;;;;;13.77;4.80;;;;;;;;;;5044500;28;20513;-65
2021/08/23 10:05:48;;;;;;;13.55;5.65;;;;;;;;;;5033439;28;20025;-64
2021/08/23 10:08:20;;;;;;;13.10;4.72;;;;;;;;;;5027493;28;20030;-77
2021/08/23 10:10:46;;;;;;;11.27;4.65;;;;;;;;;;5026577;28;20778;-73
2021/08/23 10:13:14;;;;;;;16.98;4.93;;;;;;;;;;5032359;28;20072;-68
2021/08/23 10:15:40;;;;;;;11.05;4.63;;;;;;;;;;5028407;28;20091;-75
2021/08/23 10:18:09;;;;;;;12.00;4.88;;;;;;;;;;5032538;28;20025;-77
2021/08/23 10:20:36;;;;;;;10.38;4.90;;;;;;;;;;5030550;28;20427;-74
2021/08/23 10:23:03;;;;;;;11.35;4.97;;;;;;;;;;5031871;28;20096;-77
2021/08/23 10:25:30;;;;;;;12.95;5.18;;;;;;;;;;5032808;28;20566;-68
2021/08/23 10:28:09;;;;;;;14.38;4.70;;;;;;;;;;5031695;28;20018;-68
2021/08/23 10:30:38;;;;;;;10.98;5.32;;;;;;;;;;5031146;28;20379;-69
2021/08/23 10:33:15;;;;;;;9.05;4.57;;;;;;;;;;5032489;28;20147;-69
2021/08/23 10:35:56;;;;;;;13.32;4.80;;;;;;;;;;5032632;28;20021;-68
2021/08/23 10:38:27;;;;;;;9.45;5.13;;;;;;;;;;5022059;28;20415;-70
2021/08/23 10:41:09;;;;;;;8.55;4.72;;;;;;;;;;5031688;28;20107;-80
2021/08/23 10:43:46;;;;;;;10.45;4.82;;;;;;;;;;5025551;28;20502;-85
2021/08/23 10:46:30;;;;;;;13.57;4.70;;;;;;;;;;5013453;28;20032;-75
2021/08/23 10:48:59;;;;;;;14.07;4.70;;;;;;;;;;5031792;28;20026;-76
2021/08/23 10:51:27;;;;;;;13.48;5.18;;;;;;;;;;5032105;28;20033;-65
2021/08/23 10:53:53;;;;;;;11.45;4.57;;;;;;;;;;5021403;28;20037;-66
2021/08/23 10:56:21;;;;;;;13.82;4.93;;;;;;;;;;5018540;28;20064;-66
2021/08/23 10:58:47;;;;;;;11.13;5.30;;;;;;;;;;5030668;28;20029;-67
2021/08/23 11:01:21;;;;;;;10.05;4.72;;;;;;;;;;5030339;28;20028;-66
2021/08/23 11:03:58;;;;;;;9.55;4.55;;;;;;;;;;5024369;28;20099;-68
2021/08/23 11:06:24;;;;;;;9.30;5.28;;;;;;;;;;5031579;28;20095;-66
2021/08/23 11:08:50;;;;;;;10.30;4.80;;;;;;;;;;5031353;28;20033;-66
2021/08/23 11:11:19;;;;;;;12.45;4.90;;;;;;;;;;5019127;28;20463;-81
2021/08/23 11:13:45;;;;;;;10.77;4.72;;;;;;;;;;5025761;28;20025;-75
2021/08/23 11:16:11;;;;;;;11.30;4.93;;;;;;;;;;5027739;28;20029;-76
2021/08/23 11:18:41;;;;;;;10.77;4.78;;;;;;;;;;5040460;28;20045;-62
2021/08/23 11:21:07;;;;;;;10.02;4.82;;;;;;;;;;5031264;28;20033;-69
2021/08/23 11:23:34;;;;;;;7.60;4.53;;;;;;;;;;5029973;28;20522;-70
2021/08/23 11:26:01;;;;;;;15.25;4.93;;;;;;;;;;5031165;28;20025;-70
2021/08/23 11:28:31;;;;;;;10.52;4.78;;;;;;;;;;5027447;28;20438;-68
2021/08/23 11:31:05;;;;;;;14.68;4.75;;;;;;;;;;5027500;28;20021;-68
2021/08/23 11:33:32;;;;;;;9.05;4.32;;;;;;;;;;5030384;28;20025;-65
2021/08/23 11:35:59;;;;;;;8.18;4.43;;;;;;;;;;5031136;28;20434;-67
2021/08/23 11:38:33;;;;;;;10.25;4.97;;;;;;;;;;5031833;28;20124;-65
2021/08/23 11:40:59;;;;;;;37.42;21.98;;;;;;;;;;5029430;28;20025;-63
2021/08/23 11:43:29;;;;;;;12.05;4.90;;;;;;;;;;5034148;28;20554;-65
2021/08/23 11:45:55;;;;;;;13.85;4.97;;;;;;;;;;5031810;28;20048;-63
2021/08/23 11:48:25;;;;;;;10.57;5.00;;;;;;;;;;5035656;28;20033;-63
2021/08/23 11:50:57;;;;;;;15.90;4.93;;;;;;;;;;5031913;28;20017;-62
2021/08/23 11:53:24;;;;;;;12.77;5.32;;;;;;;;;;5030911;28;20025;-79
2021/08/23 11:55:51;;;;;;;10.35;4.93;;;;;;;;;;5017714;28;20030;-78
2021/08/23 11:58:19;;;;;;;8.52;5.10;;;;;;;;;;5043503;28;20033;-62
2021/08/23 12:00:46;;;;;;;10.52;4.63;;;;;;;;;;5031547;28;20026;-67
2021/08/23 12:03:13;;;;;;;9.10;5.75;;;;;;;;;;5034519;28;20025;-65
2021/08/23 12:05:49;;;;;;;11.00;4.57;;;;;;;;;;5029567;28;20033;-61
2021/08/23 12:08:21;;;;;;;12.35;5.50;;;;;;;;;;5033093;28;20460;-66
2021/08/23 12:10:55;;;;;;;13.57;4.80;;;;;;;;;;5033864;28;20033;-61
2021/08/23 12:13:26;;;;;;;10.45;5.00;;;;;;;;;;5033310;28;20491;-61
2021/08/23 12:16:00;;;;;;;8.65;5.22;;;;;;;;;;5034860;28;20030;-60
2021/08/23 12:18:32;;;;;;;11.00;4.97;;;;;;;;;;5034250;28;20032;-67
2021/08/23 12:21:07;;;;;;;11.38;5.47;;;;;;;;;;5035409;28;20021;-63
2021/08/23 12:23:54;;;;;;;12.27;6.25;;;;;;;;;;5032932;28;20317;-61
2021/08/23 12:26:24;;;;;;;14.50;5.15;;;;;;;;;;5034849;28;20075;-64
2021/08/23 12:28:51;;;;;;;10.55;5.13;;;;;;;;;;5034264;28;20387;-60
2021/08/23 12:31:18;;;;;;;10.13;5.43;;;;;;;;;;5033304;28;20040;-66
2021/08/23 12:33:45;;;;;;;8.48;5.20;;;;;;;;;;5034856;28;20036;-59
2021/08/23 12:36:11;;;;;;;11.50;5.60;;;;;;;;;;5035882;28;20040;-67
2021/08/23 12:38:39;;;;;;;10.00;5.53;;;;;;;;;;5040104;28;20034;-64
2021/08/23 12:41:06;;;;;;;12.50;5.85;;;;;;;;;;5021864;28;20022;-60
2021/08/23 12:43:36;;;;;;;9.32;5.50;;;;;;;;;;5034432;28;20037;-61
2021/08/23 12:46:03;;;;;;;14.23;6.30;;;;;;;;;;5029928;28;20512;-62
2021/08/23 12:48:29;;;;;;;12.35;5.88;;;;;;;;;;5034649;28;20021;-65
2021/08/23 12:50:56;;;;;;;9.95;5.90;;;;;;;;;;5020312;28;20030;-64
2021/08/23 12:53:23;;;;;;;10.73;5.47;;;;;;;;;;5032833;28;20017;-66
2021/08/23 12:55:51;;;;;;;10.07;5.45;;;;;;;;;;5034418;28;20171;-61
2021/08/23 12:58:17;;;;;;;9.88;5.30;;;;;;;;;;5034496;28;20132;-66
2021/08/23 13:00:43;;;;;;;12.23;5.70;;;;;;;;;;5032096;28;20033;-67
2021/08/23 13:03:09;;;;;;;9.93;5.25;;;;;;;;;;5029705;28;20455;-67
2021/08/23 13:05:35;;;;;;;9.55;5.22;;;;;;;;;;5034476;28;20499;-62
2021/08/23 13:08:01;;;;;;;13.50;5.03;;;;;;;;;;5034417;28;20041;-63
2021/08/23 13:10:27;;;;;;;13.15;5.60;;;;;;;;;;5033471;28;20037;-60
2021/08/23 13:12:55;;;;;;;11.63;5.70;;;;;;;;;;5032506;28;20550;-65
2021/08/23 13:15:21;;;;;;;13.75;5.55;;;;;;;;;;5030757;28;20148;-61
2021/08/23 13:17:47;;;;;;;11.85;5.45;;;;;;;;;;5024316;28;20025;-66
2021/08/23 13:20:14;;;;;;;11.40;5.57;;;;;;;;;;5033811;28;20105;-66
2021/08/23 13:22:42;;;;;;;12.38;6.32;;;;;;;;;;5031451;28;20026;-67
2021/08/23 13:25:08;;;;;;;17.75;5.70;;;;;;;;;;5033622;28;20491;-66
2021/08/23 13:27:34;;;;;;;13.27;5.50;;;;;;;;;;5034049;28;20028;-59
2021/08/23 13:30:02;;;;;;;9.23;5.28;;;;;;;;;;5032407;28;20057;-59
2021/08/23 13:32:28;;;;;;;13.30;5.55;;;;;;;;;;5032804;28;20514;-63
2021/08/23 13:34:55;;;;;;;14.30;5.80;;;;;;;;;;5033746;28;20106;-64
2021/08/23 13:37:21;;;;;;;10.60;5.30;;;;;;;;;;5022954;28;20197;-60
2021/08/23 13:39:47;;;;;;;9.68;5.78;;;;;;;;;;5030978;28;20017;-61
2021/08/23 13:42:13;;;;;;;8.68;5.20;;;;;;;;;;5032049;28;20045;-58
2021/08/23 13:44:39;;;;;;;7.88;5.25;;;;;;;;;;5023629;28;20059;-65
2021/08/23 13:47:05;;;;;;;10.95;5.47;;;;;;;;;;5025411;28;20487;-63
2021/08/23 13:49:31;;;;;;;8.35;5.30;;;;;;;;;;5014588;28;20420;-65
2021/08/23 13:51:57;;;;;;;9.30;5.22;;;;;;;;;;5025881;28;20383;-58
2021/08/23 13:54:23;;;;;;;6.15;4.47;;;;;;;;;;5032300;28;20025;-59
2021/08/23 13:56:51;;;;;;;10.90;5.18;;;;;;;;;;5022620;28;20100;-66
2021/08/23 13:59:17;;;;;;;8.63;5.20;;;;;;;;;;5033156;28;20374;-66
2021/08/23 14:01:45;;;;;;;8.35;5.03;;;;;;;;;;5022056;28;20030;-60
2021/08/23 14:04:12;;;;;;;10.25;5.22;;;;;;;;;;5027051;28;20100;-63
2021/08/23 14:06:38;;;;;;;12.90;5.32;;;;;;;;;;5031218;28;20021;-62
2021/08/23 14:09:04;;;;;;;10.25;4.82;;;;;;;;;;5032967;28;20116;-64
2021/08/23 14:11:30;;;;;;;12.07;5.28;;;;;;;;;;5032489;28;20018;-65
2021/08/23 14:13:57;;;;;;;7.90;4.80;;;;;;;;;;5031519;28;20483;-66
2021/08/23 14:16:24;;;;;;;9.25;5.93;;;;;;;;;;5033180;28;20029;-65
2021/08/23 14:18:51;;;;;;;23.52;5.50;;;;;;;;;;5032838;28;20028;-66
2021/08/23 14:21:17;;;;;;;19.67;5.65;;;;;;;;;;5028257;28;20052;-58
2021/08/23 14:23:43;;;;;;;9.73;5.10;;;;;;;;;;5026768;28;20479;-59
2021/08/23 14:26:09;;;;;;;17.52;5.38;;;;;;;;;;5039286;28;20040;-66
2021/08/23 14:28:35;;;;;;;24.65;5.68;;;;;;;;;;5031145;28;20021;-59
2021/08/23 14:31:01;;;;;;;13.05;5.50;;;;;;;;;;5023639;28;21026;-61
2021/08/23 14:33:27;;;;;;;13.27;5.63;;;;;;;;;;5020566;28;20375;-66
2021/08/23 14:35:53;;;;;;;14.55;5.32;;;;;;;;;;5032136;28;20666;-64
2021/08/23 14:38:19;;;;;;;18.17;5.32;;;;;;;;;;5032572;28;20025;-60